createdAt,value
2018-12-29T00:05:18.540Z,19.53
2018-12-29T00:08:08.998Z,19.40
2018-12-29T00:10:52.062Z,18.07
2018-12-29T00:13:42.567Z,16.90
2018-12-29T00:16:25.449Z,13.30
2018-12-29T00:19:18.001Z,14.90
2018-12-29T00:22:01.607Z,14.70
2018-12-29T00:24:52.125Z,13.37
2018-12-29T00:27:35.345Z,14.67
2018-12-29T00:30:25.867Z,13.50
2018-12-29T00:33:09.136Z,13.37
2018-12-29T00:35:59.611Z,12.43
2018-12-29T00:38:43.029Z,13.47
2018-12-29T00:41:24.620Z,13.77
2018-12-29T00:44:08.060Z,13.70
2018-12-29T00:46:58.537Z,15.50
2018-12-29T00:49:42.068Z,14.23
2018-12-29T00:52:33.582Z,14.70
2018-12-29T00:55:17.293Z,15.03
2018-12-29T00:58:07.828Z,15.83
2018-12-29T01:00:51.346Z,16.60
2018-12-29T01:03:42.756Z,14.27
2018-12-29T01:06:25.743Z,14.03
2018-12-29T01:09:16.268Z,12.40
2018-12-29T01:11:59.763Z,13.60
2018-12-29T01:14:50.228Z,14.20
2018-12-29T01:17:35.139Z,13.40
2018-12-29T01:20:25.653Z,12.60
2018-12-29T01:23:09.018Z,12.70
2018-12-29T01:25:59.551Z,13.50
2018-12-29T01:28:43.136Z,13.33
2018-12-29T01:31:33.684Z,13.40
2018-12-29T01:34:16.438Z,12.70
2018-12-29T01:37:06.968Z,12.40
2018-12-29T01:39:50.318Z,11.80
2018-12-29T01:42:40.866Z,13.37
2018-12-29T01:45:23.926Z,13.10
2018-12-29T01:48:14.464Z,13.60
2018-12-29T01:50:57.746Z,12.20
2018-12-29T01:53:48.834Z,12.80
2018-12-29T01:56:30.352Z,12.90
2018-12-29T01:59:20.904Z,13.93
2018-12-29T02:02:04.192Z,13.80
2018-12-29T02:04:54.729Z,12.50
2018-12-29T02:07:38.094Z,12.70
2018-12-29T02:10:28.627Z,13.40
2018-12-29T02:13:11.899Z,13.73
2018-12-29T02:16:02.424Z,14.53
2018-12-29T02:18:45.698Z,13.93
2018-12-29T02:21:36.234Z,14.80
2018-12-29T02:24:19.472Z,17.57
2018-12-29T02:27:10.027Z,15.77
2018-12-29T02:29:51.625Z,15.80
2018-12-29T02:32:42.163Z,19.10
2018-12-29T02:35:25.368Z,17.50
2018-12-29T02:38:15.907Z,18.00
2018-12-29T02:41:00.702Z,17.53
2018-12-29T02:43:51.144Z,20.73
2018-12-29T02:46:34.518Z,21.00
2018-12-29T02:49:25.140Z,21.40
2018-12-29T02:52:09.571Z,21.60
2018-12-29T02:55:00.164Z,20.13
2018-12-29T02:57:41.714Z,25.27
2018-12-29T03:00:32.245Z,25.40
2018-12-29T03:03:15.462Z,24.17
2018-12-29T03:06:06.030Z,25.93
2018-12-29T03:08:49.290Z,25.30
2018-12-29T03:11:39.802Z,25.80
2018-12-29T03:14:21.356Z,22.40
2018-12-29T03:17:11.821Z,24.90
2018-12-29T03:19:55.329Z,25.10
2018-12-29T03:22:45.831Z,25.97
2018-12-29T03:25:29.400Z,24.03
2018-12-29T03:28:19.933Z,23.83
2018-12-29T03:31:03.001Z,24.70
2018-12-29T03:33:53.539Z,22.73
2018-12-29T03:36:37.081Z,21.60
2018-12-29T03:39:27.591Z,24.53
2018-12-29T03:42:10.843Z,23.00
2018-12-29T03:45:01.326Z,24.27
2018-12-29T03:47:44.683Z,23.30
2018-12-29T03:50:35.219Z,20.67
2018-12-29T03:53:18.482Z,22.33
2018-12-29T03:56:09.023Z,20.93
2018-12-29T03:58:51.813Z,19.93
2018-12-29T04:01:42.324Z,19.47
2018-12-29T04:04:25.711Z,22.40
2018-12-29T04:07:16.167Z,22.20
2018-12-29T04:09:59.540Z,19.60
2018-12-29T04:12:54.066Z,20.87
2018-12-29T04:15:37.616Z,21.50
2018-12-29T04:18:28.151Z,22.17
2018-12-29T04:21:11.411Z,20.10
2018-12-29T04:24:01.929Z,23.43
2018-12-29T04:26:45.199Z,22.17
2018-12-29T04:29:35.717Z,22.03
2018-12-29T04:32:19.259Z,23.20
2018-12-29T04:35:09.707Z,22.17
2018-12-29T04:37:52.666Z,21.57
2018-12-29T04:44:09.894Z,22.63
2018-12-29T04:46:52.574Z,20.73
2018-12-29T04:49:35.714Z,22.73
2018-12-29T04:52:26.279Z,21.30
2018-12-29T04:55:09.489Z,21.20
2018-12-29T04:57:59.962Z,21.97
2018-12-29T05:00:42.957Z,21.67
2018-12-29T05:03:33.490Z,20.50
2018-12-29T05:06:16.651Z,21.37
2018-12-29T05:09:27.417Z,22.13
2018-12-29T05:12:10.145Z,21.33
2018-12-29T05:15:00.676Z,22.67
2018-12-29T05:17:43.979Z,21.90
2018-12-29T05:20:34.525Z,20.40
2018-12-29T05:23:17.329Z,23.07
2018-12-29T05:26:07.845Z,20.80
2018-12-29T05:28:50.953Z,23.93
2018-12-29T05:31:41.486Z,21.00
2018-12-29T05:34:23.053Z,21.87
2018-12-29T05:37:14.488Z,19.80
2018-12-29T05:39:58.930Z,23.40
2018-12-29T05:42:49.457Z,22.43
2018-12-29T05:45:32.184Z,23.13
2018-12-29T05:48:22.719Z,22.60
2018-12-29T05:51:05.918Z,21.50
2018-12-29T05:53:56.430Z,24.90
2018-12-29T05:56:39.650Z,23.47
2018-12-29T05:59:30.174Z,23.80
2018-12-29T06:02:13.677Z,21.40
2018-12-29T06:05:04.263Z,21.67
2018-12-29T06:07:47.652Z,22.83
2018-12-29T06:10:38.188Z,22.50
2018-12-29T06:13:21.792Z,23.73
2018-12-29T06:16:12.308Z,23.13
2018-12-29T06:18:53.927Z,26.07
2018-12-29T06:21:44.537Z,22.53
2018-12-29T06:24:27.666Z,22.77
2018-12-29T06:27:18.192Z,21.73
2018-12-29T06:30:01.385Z,24.10
2018-12-29T06:32:51.945Z,23.30
2018-12-29T06:35:35.348Z,21.73
2018-12-29T06:38:25.872Z,21.03
2018-12-29T06:41:08.793Z,23.80
2018-12-29T06:43:59.329Z,22.13
2018-12-29T06:46:42.805Z,23.20
2018-12-29T06:49:33.372Z,22.57
2018-12-29T06:52:16.804Z,20.97
2018-12-29T06:55:07.343Z,23.17
2018-12-29T06:57:50.672Z,21.60
2018-12-29T07:00:41.186Z,21.30
2018-12-29T07:03:24.079Z,21.50
2018-12-29T07:06:14.601Z,21.50
2018-12-29T07:08:57.801Z,21.10
2018-12-29T07:11:48.252Z,21.23
2018-12-29T07:14:31.528Z,23.40
2018-12-29T07:17:22.083Z,25.30
2018-12-29T07:20:05.402Z,22.53
2018-12-29T07:22:55.938Z,20.27
2018-12-29T07:25:39.064Z,24.00
2018-12-29T07:28:29.621Z,21.47
2018-12-29T07:31:13.170Z,24.03
2018-12-29T07:33:56.254Z,23.70
2018-12-29T07:36:38.997Z,22.97
2018-12-29T07:39:29.520Z,27.40
2018-12-29T07:42:12.758Z,24.70
2018-12-29T07:45:04.238Z,24.27
2018-12-29T07:47:45.750Z,26.40
2018-12-29T07:50:36.276Z,26.57
2018-12-29T07:53:19.653Z,27.30
2018-12-29T07:56:10.204Z,23.93
2018-12-29T07:58:51.838Z,24.80
2018-12-29T08:01:42.378Z,24.17
2018-12-29T08:04:25.271Z,23.93
2018-12-29T08:07:15.780Z,25.20
2018-12-29T08:09:58.956Z,26.07
2018-12-29T08:12:49.483Z,23.23
2018-12-29T08:15:32.925Z,23.63
2018-12-29T08:18:23.462Z,24.73
2018-12-29T08:21:07.043Z,25.33
2018-12-29T08:23:57.576Z,24.07
2018-12-29T08:26:40.329Z,23.90
2018-12-29T08:29:30.861Z,23.07
2018-12-29T08:32:14.044Z,23.33
2018-12-29T08:34:56.914Z,26.43
2018-12-29T08:37:38.564Z,21.80
2018-12-29T08:40:29.091Z,22.50
2018-12-29T08:43:12.576Z,21.67
2018-12-29T08:46:03.016Z,22.03
2018-12-29T08:48:44.580Z,21.90
2018-12-29T08:51:35.096Z,22.03
2018-12-29T08:54:18.557Z,20.77
2018-12-29T08:57:09.167Z,22.33
2018-12-29T08:59:52.451Z,21.90
2018-12-29T09:02:42.996Z,22.07
2018-12-29T09:05:31.905Z,22.13
2018-12-29T09:08:22.449Z,21.27
2018-12-29T09:11:05.451Z,20.97
2018-12-29T09:13:55.982Z,23.57
2018-12-29T09:16:39.132Z,18.77
2018-12-29T09:19:29.636Z,19.93
2018-12-29T09:22:12.978Z,21.87
2018-12-29T09:25:03.515Z,19.00
2018-12-29T09:27:46.949Z,20.33
2018-12-29T09:30:38.198Z,20.00
2018-12-29T09:33:21.741Z,22.53
2018-12-29T09:36:03.241Z,20.10
2018-12-29T09:38:44.853Z,20.40
2018-12-29T09:41:35.357Z,20.23
2018-12-29T09:44:17.046Z,22.03
2018-12-29T09:46:48.537Z,29.10
2018-12-29T09:49:20.097Z,25.30
2018-12-29T09:51:51.716Z,20.57
2018-12-29T09:54:23.333Z,21.13
2018-12-29T09:56:54.788Z,23.37
2018-12-29T09:59:26.252Z,23.10
2018-12-29T10:01:57.721Z,21.30
2018-12-29T10:04:29.162Z,22.43
2018-12-29T10:07:00.690Z,22.00
2018-12-29T10:09:32.126Z,22.03
2018-12-29T10:12:03.597Z,20.17
2018-12-29T10:14:35.064Z,18.80
2018-12-29T10:17:06.522Z,20.13
2018-12-29T10:19:37.974Z,20.40
2018-12-29T10:22:09.496Z,18.90
2018-12-29T10:24:41.026Z,19.40
2018-12-29T10:27:12.499Z,20.83
2018-12-29T10:29:44.028Z,19.83
2018-12-29T10:32:16.581Z,20.93
2018-12-29T10:34:48.150Z,19.47
2018-12-29T10:37:19.659Z,18.93
2018-12-29T10:39:51.116Z,18.33
2018-12-29T10:42:22.601Z,20.77
2018-12-29T10:45:06.314Z,21.33
2018-12-29T10:47:57.030Z,19.60
2018-12-29T10:50:40.577Z,20.83
2018-12-29T10:53:31.271Z,23.53
2018-12-29T10:56:14.442Z,19.80
2018-12-29T11:02:11.534Z,17.90
2018-12-29T11:05:02.172Z,18.00
2018-12-29T11:07:45.564Z,19.10
2018-12-29T11:10:28.346Z,20.40
2018-12-29T11:13:18.886Z,19.53
2018-12-29T11:16:02.097Z,18.47
2018-12-29T11:22:12.678Z,18.17
2018-12-29T11:24:55.441Z,19.33
2018-12-29T11:27:38.354Z,18.70
2018-12-29T11:33:31.302Z,17.43
2018-12-29T11:36:14.998Z,18.23
2018-12-29T11:42:34.090Z,17.97
2018-12-29T11:45:24.717Z,19.20
2018-12-29T11:48:08.209Z,18.43
2018-12-29T11:50:51.821Z,18.00
2018-12-29T11:56:44.314Z,17.27
2018-12-29T11:59:34.867Z,18.30
2018-12-29T12:02:24.403Z,16.73
2018-12-29T12:08:30.571Z,19.13
2018-12-29T12:11:13.883Z,16.87
2018-12-29T12:13:57.733Z,15.60
2018-12-29T12:16:48.304Z,17.70
2018-12-29T12:19:31.543Z,17.20
2018-12-29T12:22:22.103Z,18.30
2018-12-29T12:25:03.781Z,19.10
2018-12-29T12:27:54.308Z,18.30
2018-12-29T12:30:37.757Z,18.87
2018-12-29T12:33:28.570Z,18.80
2018-12-29T12:36:11.860Z,16.93
2018-12-29T12:39:02.469Z,18.30
2018-12-29T12:41:53.207Z,24.60
2018-12-29T12:44:43.785Z,19.17
2018-12-29T12:47:47.277Z,18.10
2018-12-29T12:50:37.848Z,17.30
2018-12-29T12:53:21.424Z,18.70
2018-12-29T12:59:14.359Z,17.27
2018-12-29T13:05:08.793Z,17.10
2018-12-29T13:07:59.319Z,18.10
2018-12-29T13:10:42.377Z,17.37
2018-12-29T13:16:34.662Z,16.57
2018-12-29T13:19:28.625Z,16.13
2018-12-29T13:22:15.779Z,17.63
2018-12-29T13:25:06.302Z,16.80
2018-12-29T13:27:47.986Z,15.03
2018-12-29T13:30:38.593Z,16.87
2018-12-29T13:33:21.530Z,15.33
2018-12-29T13:36:05.421Z,14.10
2018-12-29T13:38:48.980Z,15.57
2018-12-29T13:41:39.576Z,15.60
2018-12-29T13:44:33.330Z,15.50
2018-12-29T13:47:23.886Z,15.53
2018-12-29T13:50:07.239Z,16.20
2018-12-29T13:52:57.754Z,16.80
2018-12-29T13:55:41.269Z,16.20
2018-12-29T13:58:32.780Z,16.50
2018-12-29T14:01:16.415Z,16.13
2018-12-29T14:04:06.952Z,18.10
2018-12-29T14:07:11.242Z,18.50
2018-12-29T14:10:01.809Z,17.97
2018-12-29T14:12:45.421Z,18.07
2018-12-29T14:15:35.958Z,17.43
2018-12-29T14:18:17.525Z,17.20
2018-12-29T14:24:10.458Z,16.97
2018-12-29T14:30:03.464Z,20.13
2018-12-29T14:32:54.087Z,20.03
2018-12-29T14:35:56.578Z,18.97
2018-12-29T14:38:47.090Z,18.70
2018-12-29T14:41:30.514Z,18.57
2018-12-29T14:44:20.975Z,18.90
2018-12-29T14:47:02.527Z,21.30
2018-12-29T14:49:53.068Z,19.20
2018-12-29T14:52:36.231Z,18.77
2018-12-29T14:55:26.771Z,19.47
2018-12-29T14:58:10.198Z,20.20
2018-12-29T15:01:00.798Z,19.27
2018-12-29T15:03:43.995Z,19.57
2018-12-29T15:06:34.574Z,20.60
2018-12-29T15:09:17.633Z,20.67
2018-12-29T15:12:08.501Z,21.57
2018-12-29T15:14:53.307Z,19.30
2018-12-29T15:17:43.902Z,19.83
2018-12-29T15:20:33.902Z,21.77
2018-12-29T15:23:24.749Z,19.87
2018-12-29T15:26:08.299Z,20.50
2018-12-29T15:28:58.774Z,21.70
2018-12-29T15:31:42.162Z,21.50
2018-12-29T15:34:32.732Z,17.50
2018-12-29T15:37:15.608Z,13.70
2018-12-29T15:40:06.236Z,15.60
2018-12-29T15:42:49.425Z,15.20
2018-12-29T15:45:39.922Z,16.50
2018-12-29T15:48:23.382Z,14.73
2018-12-29T16:12:47.003Z,19.73
2018-12-29T16:15:50.993Z,20.87
2018-12-29T16:18:41.833Z,20.83
2018-12-29T16:21:44.378Z,23.70
2018-12-29T16:24:35.291Z,21.83
2018-12-29T16:27:38.972Z,22.43
2018-12-29T16:30:29.582Z,24.30
2018-12-29T16:33:13.191Z,20.97
2018-12-29T16:35:54.861Z,21.13
2018-12-29T16:38:38.337Z,21.07
2018-12-29T16:41:22.107Z,19.10
2018-12-29T16:44:13.079Z,18.97
2018-12-29T16:46:56.387Z,20.73
2018-12-29T16:49:46.973Z,17.87
2018-12-29T16:52:37.225Z,20.20
2018-12-29T16:55:28.070Z,18.27
2018-12-29T16:58:32.199Z,19.00
2018-12-29T17:01:22.806Z,20.73
2018-12-29T17:04:05.691Z,20.07
2018-12-29T17:06:56.690Z,21.00
2018-12-29T17:10:00.256Z,21.63
2018-12-29T17:12:50.802Z,23.93
2018-12-29T17:15:34.224Z,24.70
2018-12-29T17:18:25.297Z,24.40
2018-12-29T17:21:08.382Z,26.50
2018-12-29T17:23:58.933Z,25.63
2018-12-29T17:26:42.322Z,27.10
2018-12-29T17:29:33.016Z,26.07
2018-12-29T17:32:14.744Z,21.77
2018-12-29T17:35:05.382Z,21.93
2018-12-29T17:37:48.796Z,19.53
2018-12-29T17:40:39.265Z,21.70
2018-12-29T17:43:22.764Z,20.87
2018-12-29T17:46:13.411Z,21.40
2018-12-29T17:48:55.216Z,18.30
2018-12-29T17:51:46.138Z,19.37
2018-12-29T17:54:29.179Z,20.53
2018-12-29T17:57:19.724Z,18.40
2018-12-29T18:00:02.550Z,17.90
2018-12-29T18:02:54.163Z,19.13
2018-12-29T18:05:37.175Z,18.80
2018-12-29T18:08:27.707Z,19.50
2018-12-29T18:11:11.226Z,17.73
2018-12-29T18:14:01.770Z,18.63
2018-12-29T18:16:45.287Z,19.67
2018-12-29T18:19:36.056Z,21.30
2018-12-29T18:22:38.378Z,20.00
2018-12-29T18:28:31.044Z,20.80
2018-12-29T18:31:21.595Z,21.63
2018-12-29T18:34:03.120Z,21.57
2018-12-29T18:36:53.744Z,19.93
2018-12-29T18:39:44.341Z,18.37
2018-12-29T18:42:27.168Z,18.77
2018-12-29T18:45:17.796Z,17.93
2018-12-29T18:48:00.804Z,18.57
2018-12-29T18:50:51.450Z,19.60
2018-12-29T18:53:34.309Z,19.43
2018-12-29T18:56:24.973Z,19.73
2018-12-29T18:59:07.460Z,22.33
2018-12-29T19:01:57.366Z,21.47
2018-12-29T19:04:42.682Z,22.10
2018-12-29T19:07:26.324Z,18.87
2018-12-29T19:10:16.886Z,19.13
2018-12-29T19:13:00.109Z,21.67
2018-12-29T19:15:50.652Z,20.07
2018-12-29T19:18:32.428Z,20.13
2018-12-29T19:21:22.983Z,18.77
2018-12-29T19:24:27.339Z,19.23
2018-12-29T19:30:20.178Z,18.80
2018-12-29T19:33:11.097Z,18.77
2018-12-29T19:35:54.597Z,20.07
2018-12-29T19:38:36.386Z,19.53
2018-12-29T19:41:26.869Z,20.73
2018-12-29T19:44:30.461Z,21.17
2018-12-29T19:47:21.143Z,21.97
2018-12-29T19:50:04.654Z,21.03
2018-12-29T19:52:55.237Z,21.50
2018-12-29T19:55:38.710Z,21.60
2018-12-29T19:58:29.298Z,22.80
2018-12-29T20:01:12.723Z,23.07
2018-12-29T20:04:03.305Z,22.17
2018-12-29T20:06:46.553Z,23.80
2018-12-29T20:09:29.649Z,23.93
2018-12-29T20:12:20.576Z,24.67
2018-12-29T20:15:04.084Z,25.53
2018-12-29T20:17:54.660Z,25.90
2018-12-29T20:20:37.753Z,26.47
2018-12-29T20:23:28.363Z,24.67
2018-12-29T20:26:11.706Z,25.53
2018-12-29T20:29:02.252Z,25.30
2018-12-29T20:31:45.772Z,24.40
2018-12-29T20:34:36.276Z,23.87
2018-12-29T20:37:19.152Z,24.23
2018-12-29T20:40:02.037Z,25.23
2018-12-29T20:42:52.685Z,24.87
2018-12-29T20:45:36.088Z,26.17
2018-12-29T20:48:29.056Z,24.30
2018-12-29T20:51:12.342Z,26.03
2018-12-29T20:54:02.919Z,26.30
2018-12-29T20:56:46.055Z,27.47
2018-12-29T20:59:36.668Z,28.00
2018-12-29T21:02:18.333Z,25.77
2018-12-29T21:05:08.885Z,27.63
2018-12-29T21:07:52.039Z,25.67
2018-12-29T21:10:34.813Z,24.43
2018-12-29T21:13:25.363Z,26.13
2018-12-29T21:16:09.794Z,26.50
2018-12-29T21:21:50.660Z,27.20
2018-12-29T21:24:22.105Z,25.07
2018-12-29T21:26:53.526Z,25.20
2018-12-29T21:29:25.065Z,26.17
2018-12-29T21:31:58.138Z,25.53
2018-12-29T21:34:48.671Z,26.97
2018-12-29T21:37:31.582Z,27.10
2018-12-29T21:40:14.950Z,26.77
2018-12-29T21:42:58.538Z,27.40
2018-12-29T21:45:49.072Z,27.27
2018-12-29T21:48:30.662Z,25.40
2018-12-29T21:51:21.219Z,27.70
2018-12-29T21:54:04.572Z,26.93
2018-12-29T21:56:55.105Z,26.03
2018-12-29T21:59:38.651Z,28.40
2018-12-29T22:31:25.643Z,28.33
2018-12-29T22:34:16.157Z,26.80
2018-12-29T22:36:59.202Z,27.33
2018-12-29T22:39:42.993Z,26.50
2018-12-29T22:42:36.645Z,27.47
2018-12-29T22:50:59.269Z,29.13
2018-12-29T22:53:42.039Z,26.40
2018-12-29T22:59:11.487Z,27.00
2018-12-29T23:05:07.994Z,26.77
2018-12-29T23:10:33.239Z,25.73
2018-12-29T23:13:18.782Z,26.23
2018-12-29T23:16:01.103Z,26.50
2018-12-29T23:18:43.428Z,27.50
2018-12-29T23:21:29.733Z,27.73
2018-12-29T23:24:12.607Z,25.57
2018-12-29T23:26:53.731Z,28.70
2018-12-29T23:29:36.602Z,27.20
2018-12-29T23:32:20.551Z,27.83
2018-12-29T23:35:04.454Z,26.10
2018-12-29T23:37:46.989Z,25.77
2018-12-29T23:40:29.685Z,27.40
2018-12-29T23:43:12.074Z,26.30
2018-12-29T23:46:02.607Z,25.90
2018-12-29T23:48:52.308Z,25.17
2018-12-29T23:51:34.519Z,25.03
2018-12-29T23:54:16.570Z,24.70
2018-12-29T23:57:05.974Z,24.27
2018-12-29T23:59:48.685Z,24.37
